Time;durP1;ratioP1;P1;durP2;ratioP2;P2;SDS_P1;SDS_P2;PMS_P1;PMS_P2;Temp;Humidity;BMP_temperature;BMP_pressure;BME280_temperature;BME280_humidity;BME280_pressure;Samples;Min_cycle;Max_cycle;Signal;HPM_P1;HPM_P2
2023/09/01 00:00:46;;;;;;;8.20;7.50;;;16.00;99.90;;;;;;5032978;28;20441;-60
2023/09/01 00:03:13;;;;;;;9.00;8.37;;;15.90;99.90;;;;;;5034030;28;20428;-60
2023/09/01 00:05:38;;;;;;;9.07;8.27;;;15.90;99.90;;;;;;5033590;28;20417;-60
2023/09/01 00:08:06;;;;;;;8.60;7.90;;;15.90;99.90;;;;;;5034313;28;20420;-60
2023/09/01 00:10:35;;;;;;;9.43;8.73;;;15.90;99.90;;;;;;5034254;28;20249;-60
2023/09/01 00:13:02;;;;;;;8.57;7.83;;;15.90;99.90;;;;;;5033709;28;20414;-60
2023/09/01 00:15:28;;;;;;;8.33;7.73;;;15.90;99.90;;;;;;5034084;28;20417;-60
2023/09/01 00:17:54;;;;;;;9.13;8.43;;;15.80;99.90;;;;;;5033174;28;20479;-60
2023/09/01 00:20:20;;;;;;;8.00;7.40;;;15.90;99.90;;;;;;5033747;28;20437;-60
2023/09/01 00:22:45;;;;;;;9.03;8.33;;;15.80;99.90;;;;;;5033471;28;20424;-60
2023/09/01 00:25:11;;;;;;;8.60;7.87;;;15.80;99.90;;;;;;5033308;28;20174;-60
2023/09/01 00:27:37;;;;;;;8.97;8.20;;;15.80;99.90;;;;;;5033223;28;20248;-60
2023/09/01 00:30:03;;;;;;;8.50;7.80;;;15.80;99.90;;;;;;5033742;28;20182;-61
2023/09/01 00:32:28;;;;;;;8.17;7.47;;;15.80;99.90;;;;;;5033922;28;20178;-60
2023/09/01 00:34:58;;;;;;;8.40;7.70;;;15.80;99.90;;;;;;5033145;28;20432;-61
2023/09/01 00:37:24;;;;;;;8.23;7.50;;;15.80;99.90;;;;;;5033850;28;20185;-61
2023/09/01 00:39:50;;;;;;;9.60;7.67;;;15.80;99.90;;;;;;5032658;28;20463;-60
2023/09/01 00:42:16;;;;;;;8.83;7.30;;;15.80;99.90;;;;;;5033806;28;20519;-60
2023/09/01 00:44:42;;;;;;;7.83;7.33;;;15.80;99.90;;;;;;5031865;28;20235;-60
2023/09/01 00:47:08;;;;;;;8.33;7.73;;;15.80;99.90;;;;;;5033452;28;20409;-61
2023/09/01 00:49:36;;;;;;;8.43;7.67;;;15.80;99.90;;;;;;5033731;28;20181;-61
2023/09/01 00:52:02;;;;;;;8.37;7.77;;;15.80;99.90;;;;;;5033475;28;20459;-61
2023/09/01 00:54:33;;;;;;;8.20;7.60;;;15.70;99.90;;;;;;5033214;28;20417;-60
2023/09/01 00:56:59;;;;;;;7.80;7.27;;;15.70;99.90;;;;;;5032987;28;20393;-61
2023/09/01 00:59:25;;;;;;;9.47;8.67;;;15.70;99.90;;;;;;5033123;28;20401;-61
2023/09/01 01:01:52;;;;;;;7.70;7.20;;;15.70;99.90;;;;;;5032348;28;20974;-60
2023/09/01 01:04:20;;;;;;;8.90;8.20;;;15.70;99.90;;;;;;5031422;28;20449;-60
2023/09/01 01:07:17;;;;;;;7.77;7.17;;;15.70;99.90;;;;;;5032742;28;20760;-60
2023/09/01 01:10:18;;;;;;;8.10;7.50;;;15.60;99.90;;;;;;5032578;28;20524;-60
2023/09/01 01:12:59;;;;;;;8.47;7.77;;;15.60;99.90;;;;;;5032568;28;20475;-60
2023/09/01 01:15:26;;;;;;;8.40;7.70;;;15.60;99.90;;;;;;5032830;28;20761;-60
2023/09/01 01:17:56;;;;;;;8.70;8.00;;;15.60;99.90;;;;;;5032108;28;20424;-60
2023/09/01 01:20:31;;;;;;;8.07;7.30;;;15.60;99.90;;;;;;5033382;28;20412;-60
2023/09/01 01:23:17;;;;;;;9.57;7.60;;;15.60;99.90;;;;;;5032041;28;20850;-60
2023/09/01 01:25:50;;;;;;;8.00;7.20;;;15.60;99.90;;;;;;5032137;28;20423;-60
2023/09/01 01:28:17;;;;;;;7.40;6.90;;;15.60;99.90;;;;;;5032580;28;20401;-61
2023/09/01 01:30:43;;;;;;;9.73;7.80;;;15.60;99.90;;;;;;5032203;28;20421;-60
2023/09/01 01:33:47;;;;;;;8.20;7.40;;;15.60;99.90;;;;;;5032062;28;20460;-60
2023/09/01 01:36:25;;;;;;;8.80;7.93;;;15.60;99.90;;;;;;5032760;28;20416;-60
2023/09/01 01:39:00;;;;;;;8.30;7.70;;;15.60;99.90;;;;;;5028703;28;20881;-60
2023/09/01 01:41:42;;;;;;;8.20;7.50;;;15.60;99.90;;;;;;5031750;28;20497;-60
2023/09/01 01:44:10;;;;;;;8.37;7.77;;;15.60;99.90;;;;;;5032600;28;20504;-60
2023/09/01 01:46:37;;;;;;;8.53;7.83;;;15.60;99.90;;;;;;5032676;28;20491;-60
2023/09/01 01:49:09;;;;;;;7.83;7.23;;;15.60;99.90;;;;;;5031739;28;20417;-60
2023/09/01 01:51:35;;;;;;;8.10;7.50;;;15.60;99.90;;;;;;5032239;28;20411;-61
2023/09/01 01:54:01;;;;;;;7.80;7.20;;;15.60;99.90;;;;;;5031315;28;20412;-60
2023/09/01 01:56:26;;;;;;;9.10;8.20;;;15.50;99.90;;;;;;5032846;28;20754;-60
2023/09/01 01:58:52;;;;;;;10.43;7.33;;;15.50;99.90;;;;;;5032212;28;20194;-60
2023/09/01 02:01:18;;;;;;;8.13;7.40;;;15.50;99.90;;;;;;5031336;28;20288;-60
2023/09/01 02:03:44;;;;;;;7.93;7.30;;;15.50;99.90;;;;;;5031391;28;20621;-60
2023/09/01 02:06:10;;;;;;;8.40;7.67;;;15.50;99.90;;;;;;5032125;28;20212;-60
2023/09/01 02:08:36;;;;;;;9.50;8.80;;;15.50;99.90;;;;;;5031941;28;20436;-60
2023/09/01 02:11:01;;;;;;;10.47;9.07;;;15.50;99.90;;;;;;5031759;28;20178;-61
2023/09/01 02:13:28;;;;;;;10.07;9.17;;;15.50;99.90;;;;;;5032101;28;20181;-60
2023/09/01 02:15:54;;;;;;;8.17;7.47;;;15.40;99.90;;;;;;5031332;28;20926;-60
2023/09/01 02:18:20;;;;;;;7.80;7.20;;;15.40;99.90;;;;;;5032216;28;20416;-60
2023/09/01 02:20:46;;;;;;;9.03;8.30;;;15.40;99.90;;;;;;5031638;28;20497;-60
2023/09/01 02:23:17;;;;;;;8.73;8.13;;;15.40;99.90;;;;;;5032001;28;20910;-60
2023/09/01 02:25:44;;;;;;;9.73;8.80;;;15.40;99.90;;;;;;5031688;28;20424;-60
2023/09/01 02:28:10;;;;;;;9.43;8.63;;;15.30;99.90;;;;;;5031998;28;20478;-61
2023/09/01 02:30:35;;;;;;;10.03;9.23;;;15.40;99.90;;;;;;5031805;28;20429;-60
2023/09/01 02:33:01;;;;;;;9.87;9.17;;;15.40;99.90;;;;;;5029636;28;20429;-61
2023/09/01 02:35:27;;;;;;;9.27;8.57;;;15.40;99.90;;;;;;5031997;28;20560;-61
2023/09/01 02:37:55;;;;;;;8.93;8.23;;;15.40;99.90;;;;;;5031538;28;20424;-61
2023/09/01 02:40:24;;;;;;;10.07;9.13;;;15.30;99.90;;;;;;5031773;28;20204;-61
2023/09/01 02:42:51;;;;;;;10.23;9.43;;;15.40;99.90;;;;;;5031262;28;20445;-60
2023/09/01 02:45:18;;;;;;;9.33;8.53;;;15.30;99.90;;;;;;5032198;28;20463;-60
2023/09/01 02:47:44;;;;;;;9.80;9.00;;;15.30;99.90;;;;;;5032190;28;20512;-60
2023/09/01 02:50:10;;;;;;;10.30;9.50;;;15.30;99.90;;;;;;5035688;28;20448;-60
2023/09/01 02:52:36;;;;;;;10.97;9.97;;;15.30;99.90;;;;;;5035855;28;20518;-61
2023/09/01 02:55:03;;;;;;;11.10;10.10;;;15.20;99.90;;;;;;5034559;28;20527;-61
2023/09/01 02:57:28;;;;;;;10.43;9.63;;;15.20;99.90;;;;;;5035334;28;20416;-60
2023/09/01 02:59:54;;;;;;;11.03;9.93;;;15.20;99.90;;;;;;5034649;28;20490;-60
2023/09/01 03:02:23;;;;;;;10.80;9.90;;;15.20;99.90;;;;;;5034621;28;20555;-60
2023/09/01 03:04:49;;;;;;;10.50;9.63;;;15.20;99.90;;;;;;5032035;28;20304;-60
2023/09/01 03:07:16;;;;;;;11.00;10.03;;;15.20;99.90;;;;;;5035926;28;20412;-60
2023/09/01 03:09:42;;;;;;;10.77;9.77;;;15.20;99.90;;;;;;5035845;28;20451;-60
2023/09/01 03:12:08;;;;;;;10.37;9.53;;;15.20;99.90;;;;;;5034957;28;20521;-60
2023/09/01 03:14:34;;;;;;;11.93;10.83;;;15.20;99.90;;;;;;5035829;28;20434;-60
2023/09/01 03:16:59;;;;;;;11.10;10.30;;;15.20;99.90;;;;;;5034606;28;20416;-60
2023/09/01 03:19:26;;;;;;;11.57;10.50;;;15.20;99.90;;;;;;5035045;28;20636;-60
2023/09/01 03:21:51;;;;;;;12.43;11.20;;;15.20;99.90;;;;;;5034341;28;20189;-60
2023/09/01 03:24:17;;;;;;;11.60;10.43;;;15.20;99.90;;;;;;5035017;28;20423;-60
2023/09/01 03:26:43;;;;;;;12.33;11.33;;;15.30;99.90;;;;;;5034301;28;20180;-60
2023/09/01 03:29:08;;;;;;;11.80;10.80;;;15.30;99.90;;;;;;5034569;28;20182;-60
2023/09/01 03:31:34;;;;;;;11.30;10.40;;;15.30;99.90;;;;;;5034874;28;20188;-61
2023/09/01 03:34:00;;;;;;;10.80;9.90;;;15.40;99.90;;;;;;5034979;28;20609;-60
2023/09/01 03:36:26;;;;;;;11.80;10.60;;;15.40;99.90;;;;;;5035170;28;20174;-60
2023/09/01 03:38:54;;;;;;;10.43;9.43;;;15.40;99.90;;;;;;5034532;28;20176;-60
2023/09/01 03:41:20;;;;;;;11.07;10.07;;;15.50;99.90;;;;;;5034470;28;20688;-60
2023/09/01 03:43:46;;;;;;;10.90;9.90;;;15.40;99.90;;;;;;5034040;28;20416;-60
2023/09/01 03:46:12;;;;;;;11.30;10.10;;;15.50;99.90;;;;;;5035267;28;20170;-60
2023/09/01 03:48:37;;;;;;;12.30;10.50;;;15.50;99.90;;;;;;5034674;28;20174;-60
2023/09/01 03:51:11;;;;;;;10.73;9.83;;;15.50;99.90;;;;;;5034210;28;20678;-60
2023/09/01 03:53:37;;;;;;;10.07;9.17;;;15.50;99.90;;;;;;5034475;28;20158;-60
2023/09/01 03:56:12;;;;;;;10.83;9.93;;;15.50;99.90;;;;;;5032643;28;20781;-61
2023/09/01 03:58:39;;;;;;;10.60;9.57;;;15.50;99.90;;;;;;5033958;28;20899;-61
2023/09/01 04:01:08;;;;;;;9.83;9.00;;;15.40;99.90;;;;;;5032385;28;20590;-60
2023/09/01 04:03:35;;;;;;;9.67;8.87;;;15.50;99.90;;;;;;5034055;28;20804;-60
2023/09/01 04:06:01;;;;;;;9.87;8.87;;;15.50;99.90;;;;;;5033749;28;20431;-60
2023/09/01 04:08:27;;;;;;;10.00;9.10;;;15.50;99.90;;;;;;5034247;28;20429;-61
2023/09/01 04:10:52;;;;;;;10.20;9.33;;;15.50;99.90;;;;;;5033971;28;20732;-60
2023/09/01 04:13:18;;;;;;;9.00;8.20;;;15.60;99.90;;;;;;5034272;28;20231;-60
2023/09/01 04:15:44;;;;;;;9.80;8.90;;;15.60;99.90;;;;;;5034009;28;20181;-60
2023/09/01 04:18:09;;;;;;;9.97;8.97;;;15.60;99.90;;;;;;5033792;28;20201;-61
2023/09/01 04:20:35;;;;;;;9.77;8.77;;;15.60;99.90;;;;;;5034090;28;20256;-61
2023/09/01 04:23:01;;;;;;;10.27;8.80;;;15.60;99.90;;;;;;5033632;28;20173;-61
2023/09/01 04:25:26;;;;;;;10.73;9.63;;;15.60;99.90;;;;;;5033952;28;20170;-60
2023/09/01 04:27:52;;;;;;;18.80;11.30;;;15.60;99.90;;;;;;5032655;28;20629;-60
2023/09/01 04:30:18;;;;;;;13.50;11.20;;;15.60;99.90;;;;;;5033560;28;20208;-60
2023/09/01 04:32:44;;;;;;;10.83;9.80;;;15.60;99.90;;;;;;5033782;28;20177;-60
2023/09/01 04:35:10;;;;;;;11.97;10.80;;;15.60;99.90;;;;;;5032813;28;20200;-60
2023/09/01 04:37:36;;;;;;;11.60;10.40;;;15.60;99.90;;;;;;5033332;28;20609;-60
2023/09/01 04:40:06;;;;;;;11.63;10.30;;;15.60;99.90;;;;;;5033027;28;20431;-60
2023/09/01 04:42:32;;;;;;;11.03;10.03;;;15.60;99.90;;;;;;5033743;28;20456;-61
2023/09/01 04:44:58;;;;;;;10.73;9.63;;;15.60;99.90;;;;;;5032766;28;20416;-60
2023/09/01 04:47:24;;;;;;;11.03;10.00;;;15.60;99.90;;;;;;5033845;28;20804;-60
2023/09/01 04:49:50;;;;;;;10.33;9.53;;;15.60;99.90;;;;;;5033377;28;20177;-60
2023/09/01 04:52:16;;;;;;;10.20;9.40;;;15.60;99.90;;;;;;5033804;28;20167;-61
2023/09/01 04:54:41;;;;;;;11.00;10.00;;;15.60;99.90;;;;;;5033980;28;20748;-60
2023/09/01 04:57:07;;;;;;;11.27;10.37;;;15.60;99.90;;;;;;5033357;28;20614;-60
2023/09/01 04:59:33;;;;;;;10.37;9.37;;;15.60;99.90;;;;;;5033850;28;20173;-60
2023/09/01 05:01:59;;;;;;;12.73;11.43;;;15.60;99.90;;;;;;5031893;28;20210;-60
2023/09/01 05:04:26;;;;;;;12.07;10.87;;;15.70;99.90;;;;;;5033443;28;20280;-60
2023/09/01 05:06:52;;;;;;;12.43;11.17;;;15.70;99.90;;;;;;5033123;28;20403;-60
2023/09/01 05:09:19;;;;;;;12.23;11.00;;;15.80;99.90;;;;;;5033644;28;20515;-69
2023/09/01 05:11:44;;;;;;;12.13;10.93;;;15.80;99.90;;;;;;5032502;28;20515;-66
2023/09/01 05:14:10;;;;;;;12.57;11.47;;;15.80;99.90;;;;;;5032613;28;20785;-66
2023/09/01 05:16:36;;;;;;;10.17;9.27;;;15.80;99.90;;;;;;5033047;28;20637;-66
2023/09/01 05:19:02;;;;;;;11.57;10.47;;;15.80;99.90;;;;;;5032932;28;20201;-69
2023/09/01 05:21:28;;;;;;;10.67;9.70;;;15.90;99.90;;;;;;5030644;28;20228;-66
2023/09/01 05:23:54;;;;;;;13.03;11.73;;;15.90;99.90;;;;;;5032615;28;20504;-66
2023/09/01 05:26:19;;;;;;;11.03;10.13;;;15.90;99.90;;;;;;5033277;28;20216;-66
2023/09/01 05:28:45;;;;;;;10.80;9.70;;;15.80;99.90;;;;;;5033021;28;20170;-63
2023/09/01 05:31:11;;;;;;;11.20;10.20;;;15.90;99.90;;;;;;5032472;28;20802;-63
2023/09/01 05:33:37;;;;;;;13.03;10.77;;;15.90;99.90;;;;;;5032826;28;20167;-63
2023/09/01 05:36:03;;;;;;;12.00;10.90;;;15.90;99.90;;;;;;5031809;28;20190;-63
2023/09/01 05:38:28;;;;;;;11.40;10.30;;;15.90;99.90;;;;;;5032803;28;20174;-63
2023/09/01 05:40:56;;;;;;;11.50;10.33;;;15.90;99.90;;;;;;5032494;28;20607;-62
2023/09/01 05:43:23;;;;;;;13.17;12.03;;;15.90;99.90;;;;;;5032282;28;20208;-63
2023/09/01 05:45:55;;;;;;;11.50;10.60;;;15.90;99.90;;;;;;5032902;28;20413;-63
2023/09/01 05:48:20;;;;;;;11.80;10.80;;;16.00;99.90;;;;;;5033076;28;20499;-67
2023/09/01 05:50:46;;;;;;;11.10;9.83;;;16.00;99.90;;;;;;5032964;28;20492;-66
2023/09/01 05:53:12;;;;;;;12.87;10.53;;;16.00;99.90;;;;;;5031696;28;20683;-66
2023/09/01 05:55:37;;;;;;;11.23;10.13;;;16.00;99.90;;;;;;5031633;28;20618;-66
2023/09/01 05:58:03;;;;;;;12.10;11.07;;;16.00;99.90;;;;;;5032178;28;20170;-66
2023/09/01 06:00:30;;;;;;;11.33;10.23;;;16.00;99.90;;;;;;5032513;28;20341;-67
2023/09/01 06:02:56;;;;;;;12.60;11.50;;;16.00;99.90;;;;;;5031627;28;20464;-67
2023/09/01 06:05:22;;;;;;;14.27;12.57;;;16.00;99.90;;;;;;5022534;28;20544;-67
2023/09/01 06:07:48;;;;;;;14.43;12.87;;;16.10;99.90;;;;;;5032622;28;20500;-67
2023/09/01 06:10:15;;;;;;;13.03;11.73;;;16.10;99.90;;;;;;5031204;28;20754;-67
2023/09/01 06:12:41;;;;;;;13.60;12.30;;;16.10;99.90;;;;;;5031810;28;20908;-65
2023/09/01 06:15:08;;;;;;;14.17;12.60;;;16.10;99.90;;;;;;5031251;28;20421;-68
2023/09/01 06:17:33;;;;;;;12.93;11.83;;;16.10;99.90;;;;;;5032252;28;20969;-67
2023/09/01 06:20:00;;;;;;;14.77;12.90;;;16.20;99.90;;;;;;5031942;28;20405;-65
2023/09/01 06:22:25;;;;;;;14.20;12.70;;;16.10;99.90;;;;;;5032693;28;20457;-65
2023/09/01 06:24:52;;;;;;;14.73;13.37;;;16.20;99.90;;;;;;5036721;28;20447;-65
2023/09/01 06:27:17;;;;;;;14.70;12.93;;;16.20;99.90;;;;;;5035669;28;20413;-65
2023/09/01 06:29:43;;;;;;;15.37;13.87;;;16.30;99.90;;;;;;5036672;28;20458;-65
2023/09/01 06:32:11;;;;;;;16.17;13.07;;;16.30;99.90;;;;;;5035260;28;20296;-65
2023/09/01 06:34:38;;;;;;;14.30;12.90;;;16.40;99.90;;;;;;5035494;28;20652;-65
2023/09/01 06:37:04;;;;;;;19.93;13.53;;;16.50;99.90;;;;;;5035510;28;20922;-65
2023/09/01 06:39:30;;;;;;;14.40;12.90;;;16.50;99.90;;;;;;5035825;28;20421;-67
2023/09/01 06:41:56;;;;;;;14.83;12.70;;;16.60;99.90;;;;;;5034428;28;20483;-61
2023/09/01 06:44:22;;;;;;;13.87;12.50;;;16.70;99.90;;;;;;5035849;28;20178;-63
2023/09/01 06:46:48;;;;;;;15.17;13.67;;;16.70;99.90;;;;;;5035789;28;20417;-66
2023/09/01 06:49:15;;;;;;;13.73;12.53;;;16.80;99.90;;;;;;5035096;28;20673;-65
2023/09/01 06:51:41;;;;;;;12.30;10.90;;;16.80;99.90;;;;;;5035924;28;20449;-65
2023/09/01 06:54:07;;;;;;;13.30;12.20;;;16.90;99.90;;;;;;5034957;28;20409;-65
2023/09/01 06:56:33;;;;;;;12.97;11.63;;;16.90;99.90;;;;;;5035414;28;20463;-65
2023/09/01 06:58:59;;;;;;;12.70;11.50;;;17.00;99.90;;;;;;5024194;28;20421;-65
2023/09/01 07:01:27;;;;;;;14.70;12.10;;;17.00;99.90;;;;;;5035433;28;20204;-65
2023/09/01 07:03:54;;;;;;;11.93;11.03;;;17.10;99.90;;;;;;5035264;28;20221;-65
2023/09/01 07:06:20;;;;;;;14.43;11.60;;;17.20;99.90;;;;;;5034626;28;20417;-65
2023/09/01 07:08:46;;;;;;;15.27;11.60;;;17.30;99.90;;;;;;5034713;28;20842;-65
2023/09/01 07:11:14;;;;;;;15.00;11.73;;;17.30;99.90;;;;;;5033982;28;20444;-65
2023/09/01 07:13:41;;;;;;;13.40;11.03;;;17.40;99.90;;;;;;5026593;28;20236;-65
2023/09/01 07:16:07;;;;;;;11.07;10.03;;;17.40;99.90;;;;;;5034652;28;20401;-65
2023/09/01 07:18:33;;;;;;;9.90;8.93;;;17.50;99.90;;;;;;5035649;28;20396;-64
2023/09/01 07:21:00;;;;;;;10.40;9.60;;;17.50;99.90;;;;;;5034917;28;20932;-65
2023/09/01 07:23:27;;;;;;;9.70;8.87;;;17.50;99.90;;;;;;5035296;28;20401;-65
2023/09/01 07:25:53;;;;;;;9.63;8.80;;;17.60;99.90;;;;;;5035545;28;20409;-65
2023/09/01 07:28:19;;;;;;;10.00;9.27;;;17.60;99.90;;;;;;5034933;28;20397;-65
2023/09/01 07:30:45;;;;;;;8.90;8.07;;;17.70;99.90;;;;;;5035514;28;20484;-65
2023/09/01 07:33:11;;;;;;;8.40;7.70;;;17.60;99.90;;;;;;5034683;28;20539;-64
2023/09/01 07:35:36;;;;;;;8.53;7.97;;;17.70;99.90;;;;;;5049899;28;20171;-65
2023/09/01 07:38:03;;;;;;;7.90;7.30;;;17.70;99.90;;;;;;5033781;28;20179;-65
2023/09/01 07:40:32;;;;;;;6.63;6.23;;;17.80;99.90;;;;;;5035039;28;20261;-65
2023/09/01 07:43:01;;;;;;;7.10;6.60;;;17.80;99.90;;;;;;5035147;28;20824;-65
2023/09/01 07:45:27;;;;;;;6.80;6.33;;;17.90;99.90;;;;;;5035272;28;20401;-65
2023/09/01 07:47:53;;;;;;;6.90;6.40;;;17.90;99.90;;;;;;5034896;28;20463;-65
2023/09/01 07:50:19;;;;;;;6.20;5.80;;;17.90;99.90;;;;;;5034588;28;20812;-65
2023/09/01 07:52:45;;;;;;;5.67;5.40;;;17.90;99.90;;;;;;5033956;28;20166;-65
2023/09/01 07:55:11;;;;;;;5.70;5.40;;;17.90;99.90;;;;;;5034233;28;20201;-65
2023/09/01 07:57:37;;;;;;;5.60;5.30;;;17.90;99.90;;;;;;5035083;28;20177;-65
2023/09/01 08:00:07;;;;;;;5.20;4.90;;;17.90;99.90;;;;;;5034448;28;20397;-65
2023/09/01 08:02:34;;;;;;;4.60;4.40;;;17.90;99.90;;;;;;5033567;28;20256;-65
2023/09/01 08:05:03;;;;;;;4.90;4.60;;;18.00;99.90;;;;;;5034619;28;20457;-65
2023/09/01 08:07:32;;;;;;;5.30;4.73;;;17.90;99.90;;;;;;5034840;28;20477;-65
2023/09/01 08:09:58;;;;;;;4.70;4.40;;;17.90;99.90;;;;;;5034808;28;20397;-65
2023/09/01 08:12:25;;;;;;;5.27;5.00;;;17.90;99.90;;;;;;5033932;28;20421;-65
2023/09/01 08:14:51;;;;;;;5.23;4.93;;;18.00;99.90;;;;;;5034729;28;20504;-65
2023/09/01 08:17:17;;;;;;;5.10;4.80;;;17.90;99.90;;;;;;5033993;28;20437;-65
2023/09/01 08:19:49;;;;;;;4.87;4.60;;;18.00;99.90;;;;;;5034835;28;20167;-65
2023/09/01 08:22:16;;;;;;;5.10;4.80;;;18.10;99.90;;;;;;5034040;28;20202;-65
2023/09/01 08:24:42;;;;;;;5.20;4.90;;;18.20;99.90;;;;;;5034219;28;20394;-65
2023/09/01 08:27:08;;;;;;;4.30;4.10;;;18.20;99.90;;;;;;5033653;28;20897;-65
2023/09/01 08:29:34;;;;;;;4.40;4.20;;;18.30;99.90;;;;;;5034451;28;20417;-65
2023/09/01 08:32:00;;;;;;;4.60;4.40;;;18.30;99.90;;;;;;5034358;28;20178;-65
2023/09/01 08:34:27;;;;;;;4.20;4.00;;;18.30;99.90;;;;;;5033860;28;20181;-65
2023/09/01 08:36:54;;;;;;;4.20;3.97;;;18.40;99.90;;;;;;5034297;28;20437;-65
2023/09/01 08:39:19;;;;;;;4.10;3.90;;;18.50;99.90;;;;;;5033547;28;20393;-65
2023/09/01 08:41:48;;;;;;;5.00;4.70;;;18.50;99.90;;;;;;5033993;28;20455;-65
2023/09/01 08:44:14;;;;;;;5.20;5.00;;;18.60;99.90;;;;;;5033539;28;20485;-65
2023/09/01 08:46:40;;;;;;;7.67;7.37;;;18.50;99.90;;;;;;5033453;28;20401;-65
2023/09/01 08:49:08;;;;;;;4.50;4.30;;;18.50;99.90;;;;;;5033355;28;20782;-65
2023/09/01 08:51:39;;;;;;;4.47;4.27;;;18.50;99.90;;;;;;5034253;28;20459;-65
2023/09/01 08:54:06;;;;;;;5.90;5.70;;;18.50;99.90;;;;;;5033489;28;20409;-65
2023/09/01 08:56:33;;;;;;;4.70;4.50;;;18.60;99.90;;;;;;5033897;28;20820;-65
2023/09/01 08:58:59;;;;;;;3.70;3.50;;;18.60;99.90;;;;;;5033732;28;20770;-65
2023/09/01 09:01:24;;;;;;;3.20;3.10;;;18.60;99.90;;;;;;5033185;28;20455;-65
2023/09/01 09:03:50;;;;;;;5.97;5.77;;;18.60;99.90;;;;;;5033522;28;20268;-65
2023/09/01 09:06:37;;;;;;;2.70;2.60;;;18.50;99.90;;;;;;5033428;28;20271;-65
2023/09/01 09:09:14;;;;;;;3.40;3.20;;;18.40;99.90;;;;;;5033779;28;20159;-65
2023/09/01 09:11:57;;;;;;;4.97;4.67;;;18.30;99.90;;;;;;5033731;28;20439;-65
2023/09/01 09:14:27;;;;;;;5.70;5.40;;;18.40;99.90;;;;;;5033047;28;20472;-65
2023/09/01 09:16:57;;;;;;;3.10;3.00;;;18.40;99.90;;;;;;5033205;28;20934;-65
2023/09/01 09:19:24;;;;;;;3.53;3.23;;;18.40;99.90;;;;;;5032870;28;20413;-65
2023/09/01 09:22:05;;;;;;;5.20;5.00;;;18.30;99.90;;;;;;5033343;28;20455;-65
2023/09/01 09:24:36;;;;;;;5.50;5.30;;;18.30;99.90;;;;;;5033380;28;20416;-65
2023/09/01 09:27:05;;;;;;;3.27;3.07;;;18.30;99.90;;;;;;5033340;28;20508;-65
2023/09/01 09:29:41;;;;;;;3.03;2.83;;;18.30;99.90;;;;;;5032106;28;20427;-65
2023/09/01 09:32:23;;;;;;;5.20;4.90;;;18.40;99.90;;;;;;5032637;28;20445;-65
2023/09/01 09:35:07;;;;;;;5.47;5.17;;;18.40;99.90;;;;;;5033285;28;20424;-65
2023/09/01 09:37:37;;;;;;;4.87;4.67;;;18.50;99.90;;;;;;5033286;28;20420;-65
2023/09/01 09:40:13;;;;;;;4.63;4.53;;;18.30;99.90;;;;;;5032965;28;20888;-65
2023/09/01 09:42:41;;;;;;;4.20;4.00;;;18.30;99.90;;;;;;5033051;28;20999;-65
2023/09/01 09:45:20;;;;;;;3.77;3.67;;;18.30;99.90;;;;;;5033145;28;20404;-65
2023/09/01 09:47:48;;;;;;;3.60;3.40;;;18.30;99.90;;;;;;5033184;28;20385;-65
2023/09/01 09:50:16;;;;;;;4.20;4.00;;;18.40;99.90;;;;;;5031187;28;20504;-65
2023/09/01 09:52:47;;;;;;;4.70;4.50;;;18.30;99.90;;;;;;5032938;28;20408;-65
2023/09/01 09:55:18;;;;;;;4.27;4.10;;;18.40;99.90;;;;;;5032088;28;20896;-65
2023/09/01 09:57:47;;;;;;;6.00;5.80;;;18.40;99.90;;;;;;5032883;28;20393;-65
2023/09/01 10:00:14;;;;;;;3.87;3.67;;;18.50;99.90;;;;;;5032148;28;20406;-65
2023/09/01 10:02:44;;;;;;;4.70;4.50;;;18.50;99.90;;;;;;5032744;28;20993;-65
2023/09/01 10:05:14;;;;;;;5.83;5.50;;;18.50;99.90;;;;;;5032273;28;20457;-65
2023/09/01 10:07:40;;;;;;;5.80;5.60;;;18.50;99.90;;;;;;5032403;28;20455;-65
2023/09/01 10:10:08;;;;;;;5.00;4.80;;;18.50;99.90;;;;;;5032412;28;20962;-65
2023/09/01 10:12:34;;;;;;;3.60;3.30;;;18.50;99.90;;;;;;5032720;28;20405;-65
2023/09/01 10:15:03;;;;;;;5.50;5.10;;;18.50;99.90;;;;;;5032655;28;20428;-65
2023/09/01 10:17:32;;;;;;;5.53;5.23;;;18.50;99.90;;;;;;5032353;28;20409;-65
2023/09/01 10:20:00;;;;;;;5.00;4.70;;;18.40;99.90;;;;;;5032578;28;20411;-65
2023/09/01 10:22:26;;;;;;;4.40;4.20;;;18.50;99.90;;;;;;5031688;28;20849;-65
2023/09/01 10:25:11;;;;;;;3.93;3.70;;;18.50;99.90;;;;;;5032195;28;20415;-65
2023/09/01 10:27:38;;;;;;;4.10;3.90;;;18.50;99.90;;;;;;5031460;28;20871;-65
2023/09/01 10:30:43;;;;;;;4.60;4.40;;;18.40;99.90;;;;;;5032289;28;20849;-65
2023/09/01 10:33:29;;;;;;;5.33;4.83;;;18.50;99.90;;;;;;5030062;28;20484;-65
2023/09/01 10:35:57;;;;;;;5.80;5.50;;;18.50;99.90;;;;;;5029801;28;20515;-65
2023/09/01 10:38:32;;;;;;;5.73;5.53;;;18.50;99.90;;;;;;5030732;28;20413;-65
2023/09/01 10:40:58;;;;;;;6.87;6.57;;;18.50;99.90;;;;;;5032476;28;20456;-65
2023/09/01 10:43:41;;;;;;;6.23;5.93;;;18.50;99.90;;;;;;5031722;28;20408;-65
2023/09/01 10:46:13;;;;;;;3.90;3.60;;;18.50;99.90;;;;;;5032440;28;20401;-65
2023/09/01 10:48:51;;;;;;;5.23;5.00;;;18.50;99.90;;;;;;5032327;28;20410;-65
2023/09/01 10:51:18;;;;;;;5.20;5.00;;;18.50;99.90;;;;;;5030622;28;20404;-65
2023/09/01 10:53:45;;;;;;;5.10;3.90;;;18.60;99.90;;;;;;5032329;28;20462;-65
2023/09/01 10:56:15;;;;;;;3.83;3.63;;;18.50;99.90;;;;;;5032033;28;20434;-65
2023/09/01 10:58:51;;;;;;;4.73;4.40;;;18.60;99.90;;;;;;5032296;28;20477;-65
2023/09/01 11:01:38;;;;;;;5.80;5.30;;;18.60;99.90;;;;;;5031419;28;20444;-65
2023/09/01 11:04:16;;;;;;;5.60;5.40;;;18.60;99.90;;;;;;5032184;28;20445;-65
2023/09/01 11:06:56;;;;;;;5.70;5.50;;;18.60;99.90;;;;;;5032266;28;20406;-65
2023/09/01 11:09:42;;;;;;;4.43;4.20;;;18.60;99.90;;;;;;5033652;28;20404;-65
2023/09/01 11:12:10;;;;;;;4.00;3.80;;;18.70;99.90;;;;;;5035391;28;20807;-65
2023/09/01 11:14:39;;;;;;;3.60;3.50;;;18.70;99.90;;;;;;5035259;28;20480;-65
2023/09/01 11:17:05;;;;;;;6.23;3.17;;;18.70;99.90;;;;;;5035976;28;20397;-65
2023/09/01 11:19:46;;;;;;;4.00;3.80;;;18.70;99.90;;;;;;5034913;28;20804;-65
2023/09/01 11:22:12;;;;;;;5.17;4.97;;;18.80;99.90;;;;;;5035721;28;20190;-65
2023/09/01 11:24:38;;;;;;;4.60;4.40;;;18.80;99.90;;;;;;5035879;28;20866;-65
2023/09/01 11:27:04;;;;;;;3.83;3.63;;;18.80;99.90;;;;;;5035386;28;20492;-65
2023/09/01 11:29:30;;;;;;;3.70;3.50;;;18.80;99.90;;;;;;5034697;28;20410;-65
2023/09/01 11:31:56;;;;;;;3.43;3.33;;;18.90;99.90;;;;;;5035526;28;20404;-65
2023/09/01 11:34:22;;;;;;;4.00;3.80;;;18.90;99.90;;;;;;5034539;28;20797;-65
2023/09/01 11:36:49;;;;;;;4.23;4.03;;;18.90;99.90;;;;;;5035481;28;20174;-65
2023/09/01 11:39:16;;;;;;;4.03;3.90;;;19.00;99.90;;;;;;5034824;28;20555;-65
2023/09/01 11:41:43;;;;;;;3.87;3.67;;;19.00;99.90;;;;;;5035552;28;20449;-65
2023/09/01 11:44:09;;;;;;;4.00;3.80;;;19.00;99.90;;;;;;5035296;28;20810;-65
2023/09/01 11:46:36;;;;;;;3.70;3.60;;;19.10;99.90;;;;;;5034668;28;20413;-65
2023/09/01 11:49:04;;;;;;;4.00;3.90;;;19.10;99.90;;;;;;5035276;28;20436;-65
2023/09/01 11:51:40;;;;;;;3.43;3.23;;;19.10;99.90;;;;;;5034547;28;20397;-65
2023/09/01 11:54:07;;;;;;;4.63;4.53;;;19.20;99.90;;;;;;5035114;28;20403;-65
2023/09/01 11:56:33;;;;;;;3.77;3.60;;;19.20;99.90;;;;;;5034226;28;20420;-65
2023/09/01 11:59:00;;;;;;;5.53;5.27;;;19.30;99.90;;;;;;5035378;28;20409;-65
2023/09/01 12:01:38;;;;;;;4.00;3.90;;;19.30;99.90;;;;;;5034360;28;20520;-65
2023/09/01 12:04:06;;;;;;;3.80;3.70;;;19.40;99.90;;;;;;5034854;28;20460;-65
2023/09/01 12:06:32;;;;;;;3.70;3.60;;;19.40;99.90;;;;;;5033929;28;20409;-65
2023/09/01 12:09:18;;;;;;;3.20;3.10;;;19.40;99.90;;;;;;5034760;28;20405;-65
2023/09/01 12:11:54;;;;;;;4.87;4.60;;;19.40;99.90;;;;;;5034416;28;20401;-65
2023/09/01 12:14:25;;;;;;;4.50;4.30;;;19.50;99.90;;;;;;5034249;28;20400;-65
2023/09/01 12:16:53;;;;;;;5.37;5.17;;;19.50;99.90;;;;;;5034468;28;20424;-65
2023/09/01 12:19:23;;;;;;;3.40;3.20;;;19.50;99.90;;;;;;5034028;28;20805;-65
2023/09/01 12:21:53;;;;;;;5.07;4.87;;;19.60;99.90;;;;;;5033598;28;20463;-65
2023/09/01 12:24:18;;;;;;;3.10;2.90;;;19.60;99.90;;;;;;5034138;28;20385;-65
2023/09/01 12:26:44;;;;;;;4.97;4.77;;;19.60;99.90;;;;;;5034707;28;20725;-65
2023/09/01 12:29:10;;;;;;;4.50;4.30;;;19.70;99.90;;;;;;5034515;28;20169;-65
2023/09/01 12:31:36;;;;;;;4.37;4.27;;;19.70;99.90;;;;;;5033921;28;20453;-65
2023/09/01 12:34:01;;;;;;;4.60;4.40;;;19.70;99.90;;;;;;5034764;28;20613;-65
2023/09/01 12:36:27;;;;;;;3.60;3.40;;;19.70;99.90;;;;;;5033798;28;20235;-65
2023/09/01 12:38:53;;;;;;;3.90;3.70;;;19.80;99.90;;;;;;5033241;28;20166;-66
2023/09/01 12:41:18;;;;;;;9.73;4.67;;;19.80;99.90;;;;;;5033600;28;20315;-65
2023/09/01 12:43:44;;;;;;;4.97;4.77;;;19.80;99.90;;;;;;5034183;28;20244;-66
2023/09/01 12:46:11;;;;;;;5.30;5.20;;;19.80;99.90;;;;;;5034109;28;20630;-65